createdAt,value
2018-01-23T00:00:36.674Z,0.20
2018-01-23T00:01:39.147Z,0.20
2018-01-23T00:02:42.377Z,0.20
2018-01-23T00:03:46.368Z,0.20
2018-01-23T00:04:49.654Z,0.30
2018-01-23T00:05:52.122Z,0.30
2018-01-23T00:06:54.956Z,0.30
2018-01-23T00:07:57.530Z,0.30
2018-01-23T00:08:59.994Z,0.30
2018-01-23T00:10:02.468Z,0.30
2018-01-23T00:11:04.981Z,0.30
2018-01-23T00:12:07.465Z,0.30
2018-01-23T00:13:09.924Z,0.30
2018-01-23T00:14:13.686Z,0.30
2018-01-23T00:15:16.156Z,0.20
2018-01-23T00:16:18.741Z,0.30
2018-01-23T00:17:21.265Z,0.30
2018-01-23T00:18:24.477Z,0.30
2018-01-23T00:19:27.003Z,0.30
2018-01-23T00:20:29.485Z,0.40
2018-01-23T00:21:31.965Z,0.30
2018-01-23T00:22:35.271Z,0.30
2018-01-23T00:23:37.756Z,0.30
2018-01-23T00:24:40.227Z,0.30
2018-01-23T00:25:42.694Z,0.30
2018-01-23T00:26:45.920Z,0.30
2018-01-23T00:27:48.389Z,0.30
2018-01-23T00:28:50.870Z,0.30
2018-01-23T00:29:54.087Z,0.30
2018-01-23T00:30:57.321Z,0.40
2018-01-23T00:33:18.169Z,0.40
2018-01-23T00:34:21.394Z,0.40
2018-01-23T00:35:23.963Z,0.40
2018-01-23T00:36:26.419Z,0.40
2018-01-23T00:37:28.905Z,0.30
2018-01-23T00:38:32.152Z,0.30
2018-01-23T00:39:34.720Z,0.30
2018-01-23T00:40:37.185Z,0.30
2018-01-23T00:41:40.401Z,0.30
2018-01-23T00:42:42.862Z,0.30
2018-01-23T00:43:46.108Z,0.30
2018-01-23T00:44:48.698Z,0.30
2018-01-23T00:45:51.469Z,0.30
2018-01-23T00:46:53.930Z,0.30
2018-01-23T00:47:56.453Z,0.40
2018-01-23T00:48:59.145Z,0.40
2018-01-23T00:50:02.366Z,0.40
2018-01-23T00:51:05.611Z,0.40
2018-01-23T00:52:08.228Z,0.40
2018-01-23T00:53:10.689Z,0.40
2018-01-23T00:54:13.204Z,0.40
2018-01-23T00:55:16.431Z,0.40
2018-01-23T00:56:19.693Z,0.40
2018-01-23T00:57:22.633Z,0.40
2018-01-23T00:58:25.097Z,0.40
2018-01-23T00:59:27.579Z,0.40
2018-01-23T01:00:30.098Z,0.40
2018-01-23T01:01:33.361Z,0.50
2018-01-23T01:02:35.817Z,0.50
2018-01-23T01:03:38.289Z,0.50
2018-01-23T01:04:41.553Z,0.50
2018-01-23T01:05:44.002Z,0.50
2018-01-23T01:06:46.485Z,0.60
2018-01-23T01:07:48.968Z,0.50
2018-01-23T01:08:51.457Z,0.50
2018-01-23T01:09:53.909Z,0.50
2018-01-23T01:10:56.473Z,0.50
2018-01-23T01:11:59.734Z,0.40
2018-01-23T01:13:02.205Z,0.40
2018-01-23T01:14:05.369Z,0.40
2018-01-23T01:15:07.831Z,0.40
2018-01-23T01:16:10.294Z,0.40
2018-01-23T01:17:12.768Z,0.40
2018-01-23T01:18:15.253Z,0.40
2018-01-23T01:19:17.710Z,0.40
2018-01-23T01:20:20.957Z,0.40
2018-01-23T01:21:23.412Z,0.30
2018-01-23T01:22:25.892Z,0.40
2018-01-23T01:23:29.128Z,0.30
2018-01-23T01:24:32.362Z,0.40
2018-01-23T01:25:34.917Z,0.30
2018-01-23T01:26:38.137Z,0.40
2018-01-23T01:27:40.607Z,0.40
2018-01-23T01:28:43.086Z,0.40
2018-01-23T01:29:45.634Z,0.40
2018-01-23T01:30:48.876Z,0.40
2018-01-23T01:31:52.121Z,0.40
2018-01-23T01:32:54.612Z,0.40
2018-01-23T01:33:58.568Z,0.40
2018-01-23T01:35:01.049Z,0.40
2018-01-23T01:36:03.551Z,0.50
2018-01-23T01:37:06.773Z,0.50
2018-01-23T01:38:09.237Z,0.50
2018-01-23T01:39:11.706Z,0.50
2018-01-23T01:40:14.193Z,0.50
2018-01-23T01:41:16.645Z,0.50
2018-01-23T01:42:19.104Z,0.40
2018-01-23T01:43:22.413Z,0.40
2018-01-23T01:44:24.904Z,0.40
2018-01-23T01:45:27.414Z,0.40
2018-01-23T01:46:30.624Z,0.40
2018-01-23T01:47:33.182Z,0.50
2018-01-23T01:48:47.409Z,0.50
2018-01-23T01:49:49.915Z,0.50
2018-01-23T01:50:52.386Z,0.50
2018-01-23T01:51:54.855Z,0.50
2018-01-23T01:52:57.351Z,0.50
2018-01-23T01:53:59.914Z,0.50
2018-01-23T01:55:02.380Z,0.50
2018-01-23T01:56:04.833Z,0.50
2018-01-23T01:57:08.143Z,0.50
2018-01-23T01:58:10.606Z,0.50
2018-01-23T01:59:13.868Z,0.60
2018-01-23T02:00:16.339Z,0.60
2018-01-23T02:01:18.798Z,0.60
2018-01-23T02:02:22.061Z,0.70
2018-01-23T02:03:24.534Z,0.70
2018-01-23T02:04:26.999Z,0.70
2018-01-23T02:05:30.787Z,0.80
2018-01-23T02:06:33.294Z,0.80
2018-01-23T02:07:35.791Z,0.80
2018-01-23T02:08:39.017Z,0.70
2018-01-23T02:09:42.266Z,0.70
2018-01-23T02:10:45.485Z,0.60
2018-01-23T02:11:47.951Z,0.60
2018-01-23T02:12:51.235Z,0.60
2018-01-23T02:13:53.749Z,0.60
2018-01-23T02:14:56.227Z,0.60
2018-01-23T02:15:58.687Z,0.60
2018-01-23T02:17:01.157Z,0.50
2018-01-23T02:18:03.730Z,0.50
2018-01-23T02:19:06.270Z,0.50
2018-01-23T02:20:08.730Z,0.60
2018-01-23T02:21:11.201Z,0.60
2018-01-23T02:22:14.502Z,0.60
2018-01-23T02:23:16.990Z,0.60
2018-01-23T02:24:19.506Z,0.60
2018-01-23T02:25:22.033Z,0.60
2018-01-23T02:26:24.498Z,0.60
2018-01-23T02:27:26.979Z,0.60
2018-01-23T02:28:29.521Z,0.60
2018-01-23T02:29:32.242Z,0.60
2018-01-23T02:30:34.709Z,0.60
2018-01-23T02:31:37.186Z,0.60
2018-01-23T02:32:39.651Z,0.60
2018-01-23T02:33:42.134Z,0.50
2018-01-23T02:34:45.349Z,0.50
2018-01-23T02:35:48.574Z,0.60
2018-01-23T02:36:51.039Z,0.60
2018-01-23T02:37:53.505Z,0.70
2018-01-23T02:38:56.009Z,0.70
2018-01-23T02:39:58.518Z,0.70
2018-01-23T02:41:01.905Z,0.70
2018-01-23T02:42:04.361Z,0.70
2018-01-23T02:43:07.606Z,0.70
2018-01-23T02:44:10.860Z,0.80
2018-01-23T02:45:14.206Z,0.70
2018-01-23T02:46:17.453Z,0.70
2018-01-23T02:47:19.917Z,0.70
2018-01-23T02:48:22.432Z,0.70
2018-01-23T02:49:24.929Z,0.70
2018-01-23T02:50:27.422Z,0.70
2018-01-23T02:51:29.990Z,0.70
2018-01-23T02:52:32.449Z,0.70
2018-01-23T02:53:34.925Z,0.70
2018-01-23T02:54:38.161Z,0.70
2018-01-23T02:55:41.516Z,0.70
2018-01-23T02:56:44.000Z,0.70
2018-01-23T02:57:46.479Z,0.70
2018-01-23T02:58:49.002Z,0.80
2018-01-23T02:59:51.473Z,0.70
2018-01-23T03:00:53.929Z,0.70
2018-01-23T03:01:57.168Z,0.80
2018-01-23T03:03:00.424Z,0.80
2018-01-23T03:04:03.673Z,0.80
2018-01-23T03:05:06.250Z,0.70
2018-01-23T03:06:08.752Z,0.70
2018-01-23T03:07:11.299Z,0.80
2018-01-23T03:08:13.781Z,0.70
2018-01-23T03:09:16.315Z,0.70
2018-01-23T03:10:18.832Z,0.70
2018-01-23T03:11:21.314Z,0.80
2018-01-23T03:12:23.794Z,0.70
2018-01-23T03:13:26.352Z,0.80
2018-01-23T03:14:28.867Z,0.80
2018-01-23T03:15:32.144Z,0.80
2018-01-23T03:16:34.702Z,0.80
2018-01-23T03:17:37.216Z,0.70
2018-01-23T03:18:40.450Z,0.80
2018-01-23T03:19:43.678Z,0.80
2018-01-23T03:20:46.194Z,0.80
2018-01-23T03:21:48.658Z,0.80
2018-01-23T03:22:51.885Z,0.80
2018-01-23T03:23:55.112Z,0.80
2018-01-23T03:24:57.661Z,0.80
2018-01-23T03:26:00.932Z,0.80
2018-01-23T03:27:03.388Z,0.80
2018-01-23T03:28:07.401Z,0.80
2018-01-23T03:29:09.917Z,0.80
2018-01-23T03:30:12.399Z,0.80
2018-01-23T03:31:14.883Z,0.90
2018-01-23T03:32:17.448Z,0.90
2018-01-23T03:33:20.692Z,0.90
2018-01-23T03:34:23.180Z,0.80
2018-01-23T03:35:25.712Z,0.80
2018-01-23T03:36:28.212Z,0.80
2018-01-23T03:37:31.443Z,0.80
2018-01-23T03:38:34.676Z,0.80
2018-01-23T03:39:37.160Z,0.80
2018-01-23T03:40:39.616Z,0.80
2018-01-23T03:41:42.080Z,0.80
2018-01-23T03:42:44.572Z,0.70
2018-01-23T03:43:47.540Z,0.70
2018-01-23T03:44:50.027Z,0.70
2018-01-23T03:45:52.492Z,0.70
2018-01-23T03:46:54.978Z,0.70
2018-01-23T03:47:57.449Z,0.70
2018-01-23T03:48:59.924Z,0.70
2018-01-23T03:50:03.154Z,0.80
2018-01-23T03:51:05.645Z,0.70
2018-01-23T03:52:08.155Z,0.80
2018-01-23T03:53:10.638Z,0.80
2018-01-23T03:54:13.096Z,0.80
2018-01-23T03:55:16.385Z,0.80
2018-01-23T03:56:18.838Z,0.70
2018-01-23T03:57:22.838Z,0.70
2018-01-23T03:58:25.295Z,0.70
2018-01-23T03:59:27.774Z,0.70
2018-01-23T04:00:30.989Z,0.70
2018-01-23T04:01:33.591Z,0.70
2018-01-23T04:02:36.738Z,0.70
2018-01-23T04:03:39.196Z,0.70
2018-01-23T04:04:42.458Z,0.70
2018-01-23T04:05:44.991Z,0.70
2018-01-23T04:06:47.805Z,0.80
2018-01-23T04:07:50.303Z,0.80
2018-01-23T04:08:52.773Z,0.80
2018-01-23T04:09:55.250Z,0.90
2018-01-23T04:10:58.509Z,0.90
2018-01-23T04:12:02.212Z,0.90
2018-01-23T04:13:04.693Z,0.90
2018-01-23T04:14:07.917Z,0.80
2018-01-23T04:15:10.397Z,0.80
2018-01-23T04:16:12.862Z,0.90
2018-01-23T04:17:15.347Z,0.90
2018-01-23T04:18:17.809Z,0.80
2018-01-23T04:19:20.293Z,0.80
2018-01-23T04:20:22.759Z,0.90
2018-01-23T04:21:25.983Z,0.90
2018-01-23T04:22:28.448Z,0.90
2018-01-23T04:23:31.699Z,0.90
2018-01-23T04:24:34.954Z,0.90
2018-01-23T04:25:37.434Z,0.90
2018-01-23T04:26:39.935Z,0.90
2018-01-23T04:27:42.411Z,0.90
2018-01-23T04:28:45.282Z,0.90
2018-01-23T04:29:47.752Z,0.90
2018-01-23T04:30:50.215Z,0.80
2018-01-23T04:31:53.555Z,0.80
2018-01-23T04:32:56.024Z,0.80
2018-01-23T04:33:58.483Z,0.80
2018-01-23T04:35:01.699Z,0.80
2018-01-23T04:36:04.179Z,0.80
2018-01-23T04:37:06.657Z,0.80
2018-01-23T04:38:09.246Z,0.80
2018-01-23T04:39:11.714Z,0.80
2018-01-23T04:40:14.967Z,0.70
2018-01-23T04:41:18.203Z,0.80
2018-01-23T04:42:21.488Z,0.80
2018-01-23T04:43:23.940Z,0.80
2018-01-23T04:44:26.441Z,0.80
2018-01-23T04:45:28.905Z,0.80
2018-01-23T04:46:32.136Z,0.80
2018-01-23T04:47:34.662Z,0.80
2018-01-23T04:48:37.160Z,0.80
2018-01-23T04:49:39.665Z,0.70
2018-01-23T04:50:42.953Z,0.80
2018-01-23T04:51:45.410Z,0.80
2018-01-23T04:52:48.656Z,0.80
2018-01-23T04:53:51.881Z,0.80
2018-01-23T04:54:55.854Z,0.80
2018-01-23T04:55:58.376Z,0.80
2018-01-23T04:57:00.861Z,0.80
2018-01-23T04:58:03.356Z,0.80
2018-01-23T04:59:05.825Z,0.70
2018-01-23T05:00:08.309Z,0.70
2018-01-23T05:01:11.646Z,0.70
2018-01-23T05:02:14.106Z,0.70
2018-01-23T05:03:16.597Z,0.80
2018-01-23T05:04:19.821Z,0.70
2018-01-23T05:05:22.291Z,0.70
2018-01-23T05:06:24.786Z,0.80
2018-01-23T05:07:27.324Z,0.70
2018-01-23T05:08:29.791Z,0.70
2018-01-23T05:09:32.280Z,0.70
2018-01-23T05:10:34.784Z,0.70
2018-01-23T05:11:37.250Z,0.70
2018-01-23T05:12:39.874Z,0.70
2018-01-23T05:13:42.363Z,0.70
2018-01-23T05:14:45.623Z,0.60
2018-01-23T05:15:48.102Z,0.60
2018-01-23T05:16:50.573Z,0.70
2018-01-23T05:17:53.043Z,0.70
2018-01-23T05:18:55.606Z,0.70
2018-01-23T05:19:58.857Z,0.70
2018-01-23T05:21:01.331Z,0.70
2018-01-23T05:22:03.845Z,0.70
2018-01-23T05:23:06.332Z,0.80
2018-01-23T05:24:09.593Z,0.80
2018-01-23T05:25:12.909Z,0.80
2018-01-23T05:26:16.195Z,0.80
2018-01-23T05:27:18.707Z,0.80
2018-01-23T05:28:21.184Z,0.80
2018-01-23T05:29:23.700Z,0.80
2018-01-23T05:30:27.870Z,0.80
2018-01-23T05:31:30.434Z,0.80
2018-01-23T05:32:32.917Z,0.80
2018-01-23T05:33:35.414Z,0.80
2018-01-23T05:34:37.947Z,0.80
2018-01-23T05:35:40.800Z,0.80
2018-01-23T05:36:43.314Z,0.80
2018-01-23T05:37:45.878Z,0.80
2018-01-23T05:38:49.756Z,0.80
2018-01-23T05:39:52.235Z,0.70
2018-01-23T05:40:54.730Z,0.80
2018-01-23T05:41:57.226Z,0.80
2018-01-23T05:42:59.711Z,0.80
2018-01-23T05:44:02.260Z,0.80
2018-01-23T05:45:04.815Z,0.70
2018-01-23T05:46:07.390Z,0.70
2018-01-23T05:47:09.976Z,0.70
2018-01-23T05:48:12.598Z,0.70
2018-01-23T05:49:15.189Z,0.70
2018-01-23T05:50:18.591Z,0.70
2018-01-23T05:51:21.184Z,0.70
2018-01-23T05:52:23.736Z,0.70
2018-01-23T05:53:26.262Z,0.70
2018-01-23T05:54:28.774Z,0.70
2018-01-23T05:55:31.249Z,0.60
2018-01-23T05:56:33.810Z,0.70
2018-01-23T05:57:36.265Z,0.70
2018-01-23T05:58:38.780Z,0.70
2018-01-23T05:59:41.270Z,0.70
2018-01-23T06:00:44.672Z,0.80
2018-01-23T06:01:47.221Z,0.80
2018-01-23T06:02:49.743Z,0.80
2018-01-23T06:03:52.280Z,0.80
2018-01-23T06:04:54.809Z,0.80
2018-01-23T06:05:57.305Z,0.80
2018-01-23T06:06:59.906Z,0.80
2018-01-23T06:08:02.393Z,0.80
2018-01-23T06:09:04.863Z,0.80
2018-01-23T06:10:07.331Z,0.90
2018-01-23T06:11:09.934Z,0.90
2018-01-23T06:12:12.425Z,0.90
2018-01-23T06:13:14.957Z,0.90
2018-01-23T06:14:17.461Z,0.80
2018-01-23T06:15:20.685Z,0.80
2018-01-23T06:16:23.912Z,0.80
2018-01-23T06:17:26.546Z,0.70
2018-01-23T06:18:29.088Z,0.80
2018-01-23T06:19:31.610Z,0.80
2018-01-23T06:20:34.074Z,0.80
2018-01-23T06:21:36.545Z,0.80
2018-01-23T06:22:39.021Z,0.70
2018-01-23T06:23:41.510Z,0.80
2018-01-23T06:24:44.760Z,0.80
2018-01-23T06:25:48.009Z,0.70
2018-01-23T06:26:51.235Z,0.70
2018-01-23T06:27:54.476Z,0.80
2018-01-23T06:28:57.730Z,0.70
2018-01-23T06:30:01.079Z,0.80
2018-01-23T06:31:04.309Z,0.80
2018-01-23T06:32:07.553Z,0.70
2018-01-23T06:33:10.023Z,0.70
2018-01-23T06:34:12.912Z,0.70
2018-01-23T06:35:20.030Z,0.70
2018-01-23T06:36:22.486Z,0.70
2018-01-23T06:37:24.967Z,0.70
2018-01-23T06:38:27.481Z,0.70
2018-01-23T06:39:29.925Z,0.70
2018-01-23T06:40:32.401Z,0.70
2018-01-23T06:41:34.925Z,0.70
2018-01-23T06:42:37.447Z,0.70
2018-01-23T06:43:39.932Z,0.70
2018-01-23T06:44:42.401Z,0.70
2018-01-23T06:45:44.861Z,0.60
2018-01-23T06:46:47.376Z,0.70
2018-01-23T06:47:49.877Z,0.60
2018-01-23T06:48:52.361Z,0.60
2018-01-23T06:49:54.823Z,0.60
2018-01-23T06:50:57.282Z,0.60
2018-01-23T06:51:59.777Z,0.60
2018-01-23T06:53:02.255Z,0.60
2018-01-23T06:54:04.717Z,0.60
2018-01-23T06:55:07.197Z,0.60
2018-01-23T06:56:10.482Z,0.60
2018-01-23T06:57:13.019Z,0.50
2018-01-23T06:58:15.522Z,0.50
2018-01-23T06:59:18.773Z,0.50
2018-01-23T07:00:21.250Z,0.50
2018-01-23T07:01:23.762Z,0.50
2018-01-23T07:02:26.231Z,0.40
2018-01-23T07:03:29.466Z,0.50
2018-01-23T07:04:32.750Z,0.50
2018-01-23T07:05:35.257Z,0.50
2018-01-23T07:06:37.723Z,0.50
2018-01-23T07:07:40.185Z,0.50
2018-01-23T07:08:43.417Z,0.50
2018-01-23T07:09:47.967Z,0.50
2018-01-23T07:10:50.672Z,0.50
2018-01-23T07:11:53.195Z,0.60
2018-01-23T07:12:55.795Z,0.50
2018-01-23T07:13:59.051Z,0.50
2018-01-23T07:15:01.588Z,0.50
2018-01-23T07:16:04.814Z,0.60
2018-01-23T07:17:08.033Z,0.60
2018-01-23T07:18:11.291Z,0.60
2018-01-23T07:19:14.603Z,0.60
2018-01-23T07:20:17.052Z,0.60
2018-01-23T07:21:20.313Z,0.60
2018-01-23T07:22:22.793Z,0.60
2018-01-23T07:23:26.071Z,0.70
2018-01-23T07:24:29.368Z,0.70
2018-01-23T07:25:31.959Z,0.70
2018-01-23T07:26:34.438Z,0.70
2018-01-23T07:27:37.673Z,0.70
2018-01-23T07:28:40.162Z,0.70
2018-01-23T07:29:42.666Z,0.60
2018-01-23T07:30:45.169Z,0.60
2018-01-23T07:31:48.401Z,0.70
2018-01-23T07:32:50.968Z,0.70
2018-01-23T07:33:53.444Z,0.70
2018-01-23T07:34:55.922Z,0.60
2018-01-23T07:35:58.450Z,0.70
2018-01-23T07:37:00.937Z,0.70
2018-01-23T07:38:04.242Z,0.70
2018-01-23T07:39:06.700Z,0.70
2018-01-23T07:40:09.183Z,0.70
2018-01-23T07:41:11.651Z,0.70
2018-01-23T07:42:14.821Z,0.70
2018-01-23T07:43:18.056Z,0.80
2018-01-23T07:44:21.326Z,0.80
2018-01-23T07:45:23.780Z,0.80
2018-01-23T07:46:26.264Z,0.80
2018-01-23T07:47:29.293Z,0.80
2018-01-23T07:48:31.765Z,0.80
2018-01-23T07:49:34.279Z,0.80
2018-01-23T07:50:37.534Z,0.80
2018-01-23T07:51:40.018Z,0.80
2018-01-23T07:52:42.489Z,0.80
2018-01-23T07:53:44.957Z,0.80
2018-01-23T07:54:47.481Z,0.80
2018-01-23T07:55:50.703Z,0.90
2018-01-23T07:56:53.170Z,0.90
2018-01-23T07:57:55.678Z,0.90
2018-01-23T07:58:58.147Z,0.90
2018-01-23T08:00:00.638Z,0.90
2018-01-23T08:01:03.166Z,0.90
2018-01-23T08:02:05.682Z,0.90
2018-01-23T08:03:08.157Z,1.00
2018-01-23T08:04:10.646Z,1.00
2018-01-23T08:05:13.150Z,0.90
2018-01-23T08:06:16.419Z,0.90
2018-01-23T08:07:18.928Z,0.90
2018-01-23T08:08:21.404Z,0.90
2018-01-23T08:09:23.875Z,0.90
2018-01-23T08:10:26.354Z,0.80
2018-01-23T08:11:28.816Z,0.80
2018-01-23T08:12:32.114Z,0.90
2018-01-23T08:13:34.600Z,0.90
2018-01-23T08:14:37.065Z,0.90
2018-01-23T08:15:39.664Z,1.00
2018-01-23T08:16:42.128Z,1.00
2018-01-23T08:17:46.131Z,1.00
2018-01-23T08:18:49.296Z,1.00
2018-01-23T08:19:51.775Z,0.90
2018-01-23T08:20:54.269Z,0.90
2018-01-23T08:21:56.839Z,0.90
2018-01-23T08:23:00.090Z,1.00
2018-01-23T08:24:02.579Z,0.90
2018-01-23T08:25:05.050Z,1.00
2018-01-23T08:26:07.560Z,1.10
2018-01-23T08:27:10.803Z,1.20
2018-01-23T08:28:13.333Z,1.10
2018-01-23T08:29:15.802Z,1.20
2018-01-23T08:30:18.311Z,1.20
2018-01-23T08:31:20.767Z,1.10
2018-01-23T08:32:23.258Z,1.20
2018-01-23T08:33:25.711Z,1.20
2018-01-23T08:34:28.209Z,1.20
2018-01-23T08:35:30.717Z,1.20
2018-01-23T08:36:33.226Z,1.20
2018-01-23T08:37:35.684Z,1.20
2018-01-23T08:38:38.148Z,1.20
2018-01-23T08:39:40.659Z,1.20
2018-01-23T08:40:43.115Z,1.20
2018-01-23T08:41:46.356Z,1.20
2018-01-23T08:42:49.603Z,1.20
2018-01-23T08:43:52.833Z,1.20
2018-01-23T08:44:56.102Z,1.20
2018-01-23T08:45:58.554Z,1.20
2018-01-23T08:47:01.023Z,1.10
2018-01-23T08:48:04.274Z,1.20
2018-01-23T08:49:07.510Z,1.30
2018-01-23T08:50:10.770Z,1.30
2018-01-23T08:51:14.004Z,1.30
2018-01-23T08:52:17.258Z,1.30
2018-01-23T08:53:19.718Z,1.30
2018-01-23T08:54:22.181Z,1.40
2018-01-23T08:55:25.453Z,1.40
2018-01-23T08:56:27.930Z,1.40
2018-01-23T08:57:31.936Z,1.50
2018-01-23T08:58:34.394Z,1.50
2018-01-23T08:59:37.021Z,1.50
2018-01-23T09:00:39.489Z,1.60
2018-01-23T09:01:42.722Z,1.60
2018-01-23T09:02:45.212Z,1.60
2018-01-23T09:03:47.687Z,1.60
2018-01-23T09:04:50.933Z,1.60
2018-01-23T09:05:54.162Z,1.60
2018-01-23T09:06:56.626Z,1.60
2018-01-23T09:07:59.457Z,1.60
2018-01-23T09:09:01.965Z,1.60
2018-01-23T09:10:04.447Z,1.60
2018-01-23T09:11:07.060Z,1.50
2018-01-23T09:12:09.542Z,1.50
2018-01-23T09:13:12.795Z,1.60
2018-01-23T09:14:15.264Z,1.60
2018-01-23T09:15:17.744Z,1.60
2018-01-23T09:16:20.268Z,1.60
2018-01-23T09:17:23.492Z,1.70
2018-01-23T09:18:26.751Z,1.70
2018-01-23T09:19:29.229Z,1.70
2018-01-23T09:20:31.806Z,1.80
2018-01-23T09:21:34.280Z,1.80
2018-01-23T09:22:36.753Z,1.80
2018-01-23T09:23:39.233Z,1.70
2018-01-23T09:24:43.325Z,1.70
2018-01-23T09:25:46.668Z,1.70
2018-01-23T09:26:49.963Z,1.70
2018-01-23T09:27:52.504Z,1.70
2018-01-23T09:28:55.095Z,1.80
2018-01-23T09:29:57.558Z,1.90
2018-01-23T09:31:00.045Z,1.90
2018-01-23T09:32:02.511Z,1.80
2018-01-23T09:33:04.984Z,1.90
2018-01-23T09:34:07.479Z,1.90
2018-01-23T09:35:09.939Z,1.90
2018-01-23T09:36:12.446Z,1.90
2018-01-23T09:37:15.799Z,1.90
2018-01-23T09:38:18.294Z,1.90
2018-01-23T09:39:20.745Z,1.90
2018-01-23T09:40:23.226Z,2.00
2018-01-23T09:41:25.746Z,2.00
2018-01-23T09:42:28.237Z,2.10
2018-01-23T09:43:30.754Z,2.10
2018-01-23T09:44:33.215Z,2.10
2018-01-23T09:45:35.677Z,2.10
2018-01-23T09:46:38.170Z,2.10
2018-01-23T09:47:40.716Z,2.20
2018-01-23T09:48:43.131Z,2.20
2018-01-23T09:49:45.652Z,2.20
2018-01-23T09:50:48.159Z,2.10
2018-01-23T09:51:50.641Z,2.10
2018-01-23T09:52:54.745Z,2.10
2018-01-23T09:53:57.207Z,2.10
2018-01-23T09:54:59.782Z,2.10
2018-01-23T09:56:02.242Z,2.10
2018-01-23T09:57:04.707Z,2.10
2018-01-23T09:58:07.952Z,2.10
2018-01-23T09:59:10.410Z,2.10
2018-01-23T10:00:13.117Z,2.10
2018-01-23T10:01:15.593Z,2.10
2018-01-23T10:02:18.085Z,2.10
2018-01-23T10:03:20.581Z,2.10
2018-01-23T10:04:23.810Z,2.20
2018-01-23T10:05:27.240Z,2.30
2018-01-23T10:06:29.660Z,2.30
2018-01-23T10:07:32.212Z,2.30
2018-01-23T10:08:35.458Z,2.40
2018-01-23T10:09:38.690Z,2.50
2018-01-23T10:10:41.973Z,2.50
2018-01-23T10:11:44.470Z,2.50
2018-01-23T10:12:47.693Z,2.50
2018-01-23T10:13:50.192Z,2.50
2018-01-23T10:14:52.641Z,2.40
2018-01-23T10:15:56.010Z,2.30
2018-01-23T10:16:58.499Z,2.30
2018-01-23T10:18:01.167Z,2.40
2018-01-23T10:19:03.711Z,2.40
2018-01-23T10:20:06.169Z,2.40
2018-01-23T10:21:08.700Z,2.40
2018-01-23T10:22:11.185Z,2.40
2018-01-23T10:23:13.654Z,2.40
2018-01-23T10:24:16.107Z,2.40
2018-01-23T10:25:19.341Z,2.40
2018-01-23T10:26:22.591Z,2.50
2018-01-23T10:27:25.811Z,2.50
2018-01-23T10:28:28.278Z,2.50
2018-01-23T10:29:30.798Z,2.50
2018-01-23T10:30:33.293Z,2.60
2018-01-23T10:31:35.765Z,2.60
2018-01-23T10:32:38.239Z,2.60
2018-01-23T10:33:40.787Z,2.50
2018-01-23T10:34:44.034Z,2.60
2018-01-23T10:35:47.774Z,2.60
2018-01-23T10:36:51.078Z,2.60
2018-01-23T10:37:53.564Z,2.60
2018-01-23T10:38:56.133Z,2.60
2018-01-23T10:39:58.594Z,2.60
2018-01-23T10:41:01.871Z,2.70
2018-01-23T10:42:04.375Z,2.70
2018-01-23T10:43:06.891Z,2.70
2018-01-23T10:44:10.114Z,2.70
2018-01-23T10:45:12.720Z,2.70
2018-01-23T10:46:15.209Z,2.80
2018-01-23T10:47:17.725Z,2.80
2018-01-23T10:48:20.218Z,2.90
2018-01-23T10:49:23.446Z,2.80
2018-01-23T10:50:25.924Z,2.80
2018-01-23T10:51:28.399Z,2.80
2018-01-23T10:52:30.865Z,2.80
2018-01-23T10:53:33.354Z,2.90
2018-01-23T10:54:36.607Z,3.00
2018-01-23T10:55:39.090Z,3.00
2018-01-23T10:56:41.942Z,3.10
2018-01-23T10:57:44.421Z,3.10
2018-01-23T10:58:46.933Z,3.10
2018-01-23T10:59:50.228Z,3.00
2018-01-23T11:00:58.503Z,3.00
2018-01-23T11:02:01.064Z,3.00
2018-01-23T11:03:04.328Z,3.00
2018-01-23T11:04:06.859Z,3.00
2018-01-23T11:05:09.413Z,3.00
2018-01-23T11:06:11.888Z,3.00
2018-01-23T11:07:14.345Z,3.00
2018-01-23T11:08:16.813Z,3.00
2018-01-23T11:09:19.301Z,3.00
2018-01-23T11:10:21.782Z,3.00
2018-01-23T11:11:25.026Z,3.00
2018-01-23T11:12:28.465Z,2.90
2018-01-23T11:13:31.136Z,2.90
2018-01-23T11:14:33.670Z,2.90
2018-01-23T11:15:36.691Z,2.90
2018-01-23T11:16:39.237Z,2.90
2018-01-23T11:17:41.734Z,2.90
2018-01-23T11:18:44.234Z,2.90
2018-01-23T11:19:47.516Z,3.00
2018-01-23T11:20:50.339Z,3.00
2018-01-23T11:21:52.816Z,3.00
2018-01-23T11:22:55.393Z,3.00
2018-01-23T11:23:58.066Z,3.00
2018-01-23T11:25:00.561Z,3.00
2018-01-23T11:26:03.054Z,3.00
2018-01-23T11:27:05.552Z,3.00
2018-01-23T11:28:08.097Z,3.00
2018-01-23T11:29:11.339Z,3.00
2018-01-23T11:30:13.904Z,3.00
2018-01-23T11:31:16.374Z,3.00
2018-01-23T11:32:18.834Z,3.10
2018-01-23T11:33:21.353Z,3.10
2018-01-23T11:34:23.890Z,3.10
2018-01-23T11:35:26.379Z,3.10
2018-01-23T11:36:29.641Z,3.10
2018-01-23T11:37:32.878Z,3.10
2018-01-23T11:38:36.116Z,3.00
2018-01-23T11:39:39.362Z,3.00
2018-01-23T11:40:42.629Z,3.10
2018-01-23T11:41:45.154Z,3.10
2018-01-23T11:42:47.625Z,3.00
2018-01-23T11:43:50.088Z,3.00
2018-01-23T11:44:52.628Z,3.00
2018-01-23T11:45:55.120Z,3.00
2018-01-23T11:46:57.574Z,3.00
2018-01-23T11:48:00.075Z,3.00
2018-01-23T11:49:03.317Z,3.00
2018-01-23T11:50:06.625Z,3.10
2018-01-23T11:51:09.099Z,3.10
2018-01-23T11:52:12.345Z,3.10
2018-01-23T11:53:14.826Z,3.10
2018-01-23T11:54:17.302Z,3.10
2018-01-23T11:55:19.781Z,3.10
2018-01-23T11:56:22.267Z,3.10
2018-01-23T11:57:24.753Z,3.10
2018-01-23T11:58:27.993Z,3.10
2018-01-23T11:59:31.295Z,3.20
2018-01-23T12:00:33.795Z,3.20
2018-01-23T12:01:36.323Z,3.20
2018-01-23T12:02:38.799Z,3.20
2018-01-23T12:03:41.281Z,3.30
2018-01-23T12:04:43.765Z,3.30
2018-01-23T12:05:47.549Z,3.30
2018-01-23T12:06:50.062Z,3.30
2018-01-23T12:07:52.540Z,3.30
2018-01-23T12:08:55.006Z,3.40
2018-01-23T12:09:57.483Z,3.30
2018-01-23T12:10:59.953Z,3.30
2018-01-23T12:12:02.453Z,3.30
2018-01-23T12:13:04.910Z,3.30
2018-01-23T12:14:07.371Z,3.30
2018-01-23T12:15:09.894Z,3.40
2018-01-23T12:16:12.344Z,3.50
2018-01-23T12:17:14.862Z,3.50
2018-01-23T12:18:17.330Z,3.60
2018-01-23T12:19:19.909Z,3.60
2018-01-23T12:20:22.314Z,3.60
2018-01-23T12:21:24.798Z,3.60
2018-01-23T12:22:28.038Z,3.70
2018-01-23T12:23:31.290Z,3.80
2018-01-23T12:24:33.745Z,3.80
2018-01-23T12:25:36.218Z,3.80
2018-01-23T12:26:39.698Z,3.70
2018-01-23T12:27:42.206Z,3.70
2018-01-23T12:28:45.449Z,3.80
2018-01-23T12:29:48.686Z,3.70
2018-01-23T12:30:51.949Z,3.70
2018-01-23T12:31:54.437Z,3.70
2018-01-23T12:32:56.909Z,3.70
2018-01-23T12:33:59.386Z,3.70
2018-01-23T12:35:01.883Z,3.70
2018-01-23T12:36:04.594Z,3.70
2018-01-23T12:37:07.077Z,3.70
2018-01-23T12:38:10.325Z,3.70
2018-01-23T12:39:13.569Z,3.70
2018-01-23T12:40:16.799Z,3.70
2018-01-23T12:41:19.317Z,3.70
2018-01-23T12:42:21.798Z,3.70
2018-01-23T12:43:24.906Z,3.70
2018-01-23T12:44:28.161Z,3.80
2018-01-23T12:45:33.074Z,3.80
2018-01-23T12:46:36.383Z,3.90
2018-01-23T12:47:38.855Z,3.80
2018-01-23T12:48:41.449Z,3.80
2018-01-23T12:49:43.966Z,3.80
2018-01-23T12:50:46.429Z,3.70
2018-01-23T12:51:48.934Z,3.70
2018-01-23T12:52:51.442Z,3.70
2018-01-23T12:53:53.915Z,3.70
2018-01-23T12:54:57.170Z,3.70
2018-01-23T12:55:59.747Z,3.70
2018-01-23T12:57:02.252Z,3.70
2018-01-23T12:58:05.477Z,3.60
2018-01-23T12:59:08.847Z,3.60
2018-01-23T13:00:11.367Z,3.60
2018-01-23T13:01:13.930Z,3.60
2018-01-23T13:02:17.099Z,3.60
2018-01-23T13:03:20.635Z,3.50
2018-01-23T13:04:24.038Z,3.50
2018-01-23T13:05:27.595Z,3.50
2018-01-23T13:18:33.057Z,3.60
2018-01-23T13:19:35.526Z,3.60
2018-01-23T13:20:38.108Z,3.60
2018-01-23T13:21:41.324Z,3.50
2018-01-23T13:22:44.562Z,3.50
2018-01-23T13:23:47.945Z,3.50
2018-01-23T13:24:50.410Z,3.40
2018-01-23T13:25:52.889Z,3.50
2018-01-23T13:26:55.359Z,3.50
2018-01-23T13:27:57.806Z,3.50
2018-01-23T13:29:00.370Z,3.50
2018-01-23T13:30:02.860Z,3.50
2018-01-23T13:31:05.405Z,3.50
2018-01-23T13:32:07.865Z,3.50
2018-01-23T13:33:10.465Z,3.50
2018-01-23T13:34:12.940Z,3.50
2018-01-23T13:35:15.469Z,3.50
2018-01-23T13:36:17.901Z,3.50
2018-01-23T13:37:20.370Z,3.40
2018-01-23T13:38:22.860Z,3.50
2018-01-23T13:39:26.088Z,3.40
2018-01-23T13:40:28.621Z,3.40
2018-01-23T13:41:31.137Z,3.40
2018-01-23T13:42:33.608Z,3.30
2018-01-23T13:43:36.853Z,3.30
2018-01-23T13:44:39.343Z,3.30
2018-01-23T13:45:42.582Z,3.30
2018-01-23T13:46:45.094Z,3.30
2018-01-23T13:47:47.566Z,3.40
2018-01-23T13:48:50.199Z,3.40
2018-01-23T13:49:52.669Z,3.40
2018-01-23T13:50:55.157Z,3.40
2018-01-23T13:51:57.701Z,3.40
2018-01-23T13:53:00.163Z,3.40
2018-01-23T13:54:02.674Z,3.40
2018-01-23T13:55:05.175Z,3.40
2018-01-23T13:56:07.646Z,3.40
2018-01-23T13:57:10.905Z,3.30
2018-01-23T13:58:13.485Z,3.30
2018-01-23T13:59:16.065Z,3.40
2018-01-23T14:00:18.603Z,3.50
2018-01-23T14:01:21.102Z,3.50
2018-01-23T14:02:24.951Z,3.40
2018-01-23T14:03:28.238Z,3.40
2018-01-23T14:04:30.865Z,3.40
2018-01-23T14:05:33.371Z,3.40
2018-01-23T14:06:35.838Z,3.50
2018-01-23T14:07:38.298Z,3.50
2018-01-23T14:08:41.513Z,3.50